クライストチャーチ の空港の天気 - METARとTAF

クライストチャーチ国際空港 ( NZCH / CHC ) - ニュージーランド クライストチャーチ
飛行場実況気象(Metar)
観測時間07/21 10:00 NZST (07/20 22:00 UTC)
風向・風速西南西 9m/s
視程7000m
天気現象
全天を覆う雲 雲底高度 210m
気温10℃
湿度100%
気圧972hPa
METARNZCH 202200Z AUTO 24017KT 7000 RA OVC007/// 10/10 Q0972 TEMPO 6000 RA
過去の天気等 Google飛行場航空写真 Wunderground天気予報

過去48時間のMETAR

飛行場予報(TAF)
発表時間: 7/21 08:34 NZST (7/20 20:34 UTC)
予報対象時間: 21日8時 NZST ~ 22日6時 NZST
風向・風速南西 10m/s 瞬間風速 15m/s
視程10km以上
天気現象弱い雨
全天の8割程度の雲 雲底高度 210m
全天を覆う雲 雲底高度 370m
21日8時 NZST ~ 21日11時 NZST に一時的に
視程5,000m
天気現象
21日10時 NZST ~ 21日12時 NZST に徐々に
風向・風速東 5m/s
全天の8割程度の雲 雲底高度 370m
21日13時 NZST ~ 21日15時 NZST に徐々に
風向・風速南南西 6m/s
全天の8割程度の雲 雲底高度 1,520m
TAF AMD NZCH 202034Z 2020/2118 23020G30KT 9999 -RA BKN007 OVC012
TEMPO 2020/2023 5000 RA
BECMG 2022/2100 10010KT BKN012
BECMG 2101/2103 20012KT BKN050